Nearby METAR Reports

 

TNCA - Queen Beatrix, Lesser Antilles
Distance from station: 0 0km
Updated: 25/09/2018 13:00
Mostly Cloudy
Mostly Cloudy
 Wind from E
Wind: E 39 km/h
Temperature: 32°C
Heat Index: 40°C
Dew Point: 25°C
Humidity: 67%
Barometer: 1012 hPa
Clouds: Mostly Cloudy
Visibility: 10 km
Cloud details: Mostly Cloudy 701 m
2018/09/25 17:00 TNCA 251700Z 08021KT 9999 BKN023 32/25 Q1012 NOSIG
SVJC - Paraguana/Josefa, Venezuela
Distance from station: S 83km
Updated: 23/06/2018 06:00
NOT Current

 
2018/06/23 10:00 SVJC 231000Z NI
 
TNCC - Hato Air Curacao, Lesser Antilles
Distance from station: ESE 117km
Updated: 25/09/2018 11:00
NOT Current
Partly Cloudy
Partly Cloudy
 Wind from E
Wind: E 28 km/h
Temperature: 32°C
Heat Index: 38°C
Dew Point: 24°C
Humidity: 63%
Barometer: 1013 hPa
Clouds: Partly Cloudy
Visibility: 10 km
Cloud details: Partly Cloudy 671 m
2018/09/25 15:00 TNCC 251500Z 10015KT 9999 SCT022 32/24 Q1013 NOSIG
SVCR - Coro/Jose Leonar, Venezuela
Distance from station: SSE 126km
Updated: 25/09/2018 12:00
NOT Current
Mostly Cloudy
Mostly Cloudy
 Wind from varies
Wind: varies 0 km/h
Temperature: 33°C
Heat Index: 38°C
Dew Point: 23°C
Humidity: 56%
Barometer: 1013 hPa
Clouds: Mostly Cloudy
Visibility: 10 km
Cloud details: Mostly Cloudy 488 m
2018/09/25 16:00 SVCR 251600Z /////KT 9999 BKN016 33/23 Q1013
 
TNCB - Bonaire/Flamingo, Lesser Antilles
Distance from station: ESE 191km
Updated: 25/09/2018 12:55
Partly Cloudy
Partly Cloudy
 Wind from E
Wind: E 35 km/h
Temperature: 31°C
Heat Index: 36°C
Dew Point: 23°C
Humidity: 62%
Barometer: 1012 hPa
Clouds: Partly Cloudy
Visibility: 10 km
Cloud details: Partly Cloudy 701 m
Partly Cloudy 823 m
2018/09/25 16:55 TNCB 251655Z AUTO 09019KT 060V120 9999 SCT023/// SCT027/// 31/23 Q1012
SVMC - Maracaibo/La Chi, Venezuela
Distance from station: SW 285km
Updated: 19/09/2018 19:00
NOT Current
Mostly Cloudy
Mostly Cloudy
 Wind from NE
Wind: NE 6 km/h
Temperature: 31°C
Heat Index: 39°C
Dew Point: 26°C
Humidity: 75%
Barometer: 1008 hPa
Clouds: Mostly Cloudy
Visibility: 10 km
Cloud details: Mostly Cloudy 396 m
2018/09/19 23:00 SVMC 192300Z 05003KT 9999 BKN013 31/26 Q1008